createdAt,value
2018-09-25T00:00:42.755Z,1.52
2018-09-25T00:03:16.275Z,1.42
2018-09-25T00:05:50.516Z,1.85
2018-09-25T00:08:23.982Z,1.30
2018-09-25T00:10:57.511Z,1.77
2018-09-25T00:13:30.916Z,1.57
2018-09-25T00:16:04.530Z,1.60
2018-09-25T00:18:37.975Z,1.27
2018-09-25T00:21:11.748Z,1.47
2018-09-25T00:23:45.239Z,1.50
2018-09-25T00:26:18.898Z,1.95
2018-09-25T00:28:52.476Z,1.70
2018-09-25T00:31:26.175Z,1.50
2018-09-25T00:33:59.625Z,1.98
2018-09-25T00:36:33.103Z,2.02
2018-09-25T00:39:06.771Z,1.95
2018-09-25T00:41:40.491Z,1.98
2018-09-25T00:44:13.976Z,1.80
2018-09-25T00:46:47.571Z,1.50
2018-09-25T00:49:21.107Z,1.70
2018-09-25T00:51:54.734Z,1.57
2018-09-25T00:54:28.232Z,1.40
2018-09-25T00:57:01.624Z,1.87
2018-09-25T00:59:35.148Z,2.00
2018-09-25T01:02:08.635Z,1.52
2018-09-25T01:04:42.405Z,1.90
2018-09-25T01:07:15.951Z,1.90
2018-09-25T01:09:49.609Z,1.75
2018-09-25T01:12:23.186Z,1.85
2018-09-25T01:14:56.879Z,1.55
2018-09-25T01:17:30.386Z,1.60
2018-09-25T01:20:03.987Z,1.70
2018-09-25T01:22:37.560Z,1.75
2018-09-25T01:25:11.023Z,1.60
2018-09-25T01:27:44.647Z,1.50
2018-09-25T01:30:18.240Z,1.90
2018-09-25T01:32:51.719Z,2.17
2018-09-25T01:35:25.319Z,1.40
2018-09-25T01:37:58.835Z,1.90
2018-09-25T01:40:32.277Z,1.80
2018-09-25T01:43:05.916Z,1.80
2018-09-25T01:45:39.571Z,1.95
2018-09-25T01:48:13.091Z,2.05
2018-09-25T01:50:46.592Z,1.60
2018-09-25T01:53:20.238Z,1.67
2018-09-25T01:55:53.722Z,1.60
2018-09-25T01:58:27.195Z,2.08
2018-09-25T02:01:00.690Z,1.55
2018-09-25T02:03:34.087Z,1.52
2018-09-25T02:06:07.750Z,1.75
2018-09-25T02:08:41.934Z,1.62
2018-09-25T02:11:15.476Z,2.22
2018-09-25T02:13:49.034Z,1.40
2018-09-25T02:16:22.620Z,1.70
2018-09-25T02:18:56.768Z,1.62
2018-09-25T02:21:30.337Z,1.80
2018-09-25T02:24:04.023Z,1.50
2018-09-25T02:26:37.511Z,1.80
2018-09-25T02:29:11.191Z,1.60
2018-09-25T02:31:44.701Z,1.72
2018-09-25T02:34:18.224Z,2.10
2018-09-25T02:36:51.752Z,1.65
2018-09-25T02:39:25.315Z,2.05
2018-09-25T02:41:59.478Z,1.50
2018-09-25T02:44:32.980Z,1.85
2018-09-25T02:47:06.563Z,2.08
2018-09-25T02:49:40.107Z,1.50
2018-09-25T02:52:13.587Z,1.82
2018-09-25T02:54:47.268Z,1.70
2018-09-25T02:57:20.679Z,1.77
2018-09-25T02:59:54.317Z,1.90
2018-09-25T03:02:27.903Z,1.57
2018-09-25T03:05:01.575Z,1.75
2018-09-25T03:07:35.022Z,1.85
2018-09-25T03:10:08.531Z,1.75
2018-09-25T03:12:42.232Z,1.70
2018-09-25T03:15:15.741Z,1.92
2018-09-25T03:17:49.211Z,1.80
2018-09-25T03:20:22.790Z,2.05
2018-09-25T03:22:56.362Z,1.90
2018-09-25T03:25:29.767Z,2.37
2018-09-25T03:28:03.508Z,2.10
2018-09-25T03:30:36.935Z,2.15
2018-09-25T03:33:10.492Z,1.85
2018-09-25T03:35:44.113Z,1.90
2018-09-25T03:38:17.707Z,1.87
2018-09-25T03:40:51.420Z,2.15
2018-09-25T03:43:24.959Z,2.35
2018-09-25T03:45:58.456Z,1.90
2018-09-25T03:48:32.086Z,2.10
2018-09-25T03:51:05.553Z,1.65
2018-09-25T03:53:38.962Z,1.95
2018-09-25T03:56:12.451Z,2.08
2018-09-25T03:58:46.200Z,2.50
2018-09-25T04:01:19.835Z,1.92
2018-09-25T04:03:53.397Z,3.10
2018-09-25T04:06:26.856Z,1.90
2018-09-25T04:09:00.496Z,2.12
2018-09-25T04:11:34.228Z,2.20
2018-09-25T04:14:07.741Z,1.80
2018-09-25T04:16:41.398Z,1.57
2018-09-25T04:19:14.967Z,1.90
2018-09-25T04:21:48.548Z,1.90
2018-09-25T04:24:22.058Z,1.65
2018-09-25T04:26:55.623Z,2.30
2018-09-25T04:29:29.266Z,2.02
2018-09-25T04:32:02.654Z,2.10
2018-09-25T04:34:36.174Z,1.85
2018-09-25T04:37:09.734Z,2.25
2018-09-25T04:39:43.255Z,2.20
2018-09-25T04:42:17.000Z,1.70
2018-09-25T04:44:50.480Z,1.82
2018-09-25T04:47:24.059Z,1.67
2018-09-25T04:49:57.667Z,1.82
2018-09-25T04:52:31.342Z,1.57
2018-09-25T04:55:04.920Z,2.67
2018-09-25T04:57:38.603Z,2.52
2018-09-25T05:00:12.156Z,2.25
2018-09-25T05:02:45.511Z,2.12
2018-09-25T05:05:19.203Z,2.00
2018-09-25T05:07:52.643Z,2.50
2018-09-25T05:10:26.291Z,2.40
2018-09-25T05:12:59.852Z,2.15
2018-09-25T05:15:33.390Z,2.70
2018-09-25T05:18:07.039Z,2.20
2018-09-25T05:20:40.429Z,2.50
2018-09-25T05:23:14.386Z,3.10
2018-09-25T05:25:47.918Z,1.80
2018-09-25T05:28:21.483Z,2.65
2018-09-25T05:30:55.157Z,1.85
2018-09-25T05:33:28.763Z,2.10
2018-09-25T05:36:02.202Z,1.90
2018-09-25T05:38:35.600Z,3.40
2018-09-25T05:41:09.173Z,2.95
2018-09-25T05:43:42.722Z,2.12
2018-09-25T05:46:16.148Z,1.70
2018-09-25T05:48:49.856Z,2.00
2018-09-25T05:51:23.222Z,2.10
2018-09-25T05:53:56.655Z,2.27
2018-09-25T05:56:30.305Z,2.25
2018-09-25T05:59:03.822Z,2.27
2018-09-25T06:01:37.411Z,2.02
2018-09-25T06:04:10.891Z,2.20
2018-09-25T06:06:44.556Z,1.80
2018-09-25T06:09:17.960Z,1.90
2018-09-25T06:11:51.372Z,1.70
2018-09-25T06:14:24.915Z,2.02
2018-09-25T06:16:58.380Z,2.10
2018-09-25T06:19:31.987Z,2.10
2018-09-25T06:22:05.664Z,1.87
2018-09-25T06:24:39.138Z,1.80
2018-09-25T06:27:12.591Z,2.02
2018-09-25T06:29:46.090Z,2.47
2018-09-25T06:32:19.664Z,1.85
2018-09-25T06:34:53.148Z,2.25
2018-09-25T06:37:26.862Z,2.80
2018-09-25T06:40:00.124Z,3.33
2018-09-25T06:42:33.611Z,2.42
2018-09-25T06:45:07.215Z,3.52
2018-09-25T06:47:40.616Z,3.30
2018-09-25T06:50:14.194Z,2.70
2018-09-25T06:52:47.698Z,2.40
2018-09-25T06:55:21.332Z,3.45
2018-09-25T06:57:54.779Z,2.37
2018-09-25T07:00:28.240Z,2.67
2018-09-25T07:03:01.852Z,2.20
2018-09-25T07:05:35.351Z,2.25
2018-09-25T07:08:08.895Z,3.27
2018-09-25T07:10:42.467Z,3.15
2018-09-25T07:13:16.028Z,3.40
2018-09-25T07:15:49.637Z,3.62
2018-09-25T07:18:23.292Z,4.40
2018-09-25T07:20:56.688Z,3.85
2018-09-25T07:23:30.211Z,5.78
2018-09-25T07:26:03.698Z,4.33
2018-09-25T07:28:37.147Z,4.58
2018-09-25T07:31:10.807Z,4.00
2018-09-25T07:33:44.279Z,4.60
2018-09-25T07:36:17.791Z,4.80
2018-09-25T07:38:51.211Z,5.58
2018-09-25T07:41:24.907Z,5.00
2018-09-25T07:43:58.537Z,5.20
2018-09-25T07:46:32.122Z,4.45
2018-09-25T07:49:05.875Z,4.45
2018-09-25T07:51:39.408Z,3.37
2018-09-25T07:54:13.055Z,5.15
2018-09-25T07:56:46.622Z,4.17
2018-09-25T07:59:20.112Z,3.27
2018-09-25T08:01:53.551Z,3.92
2018-09-25T08:04:27.066Z,3.72
2018-09-25T08:07:00.546Z,2.90
2018-09-25T08:09:34.049Z,3.02
2018-09-25T08:12:07.712Z,3.08
2018-09-25T08:14:41.408Z,2.47
2018-09-25T08:17:15.079Z,2.83
2018-09-25T08:19:48.535Z,1.90
2018-09-25T08:22:22.068Z,2.20
2018-09-25T08:24:55.588Z,3.25
2018-09-25T08:27:29.052Z,1.95
2018-09-25T08:30:02.543Z,2.00
2018-09-25T08:32:36.031Z,1.80
2018-09-25T08:35:09.599Z,1.70
2018-09-25T08:37:43.046Z,1.40
2018-09-25T08:40:16.597Z,1.60
2018-09-25T08:42:50.066Z,1.67
2018-09-25T08:45:23.456Z,1.30
2018-09-25T08:47:57.040Z,1.20
2018-09-25T08:50:30.687Z,1.47
2018-09-25T08:53:04.247Z,1.00
2018-09-25T08:55:37.874Z,1.77
2018-09-25T08:58:11.728Z,1.30
2018-09-25T09:00:45.396Z,1.22
2018-09-25T09:03:19.223Z,1.30
2018-09-25T09:05:52.888Z,1.07
2018-09-25T09:08:26.531Z,1.07
2018-09-25T09:11:00.063Z,1.10
2018-09-25T09:13:33.551Z,1.10
2018-09-25T09:16:07.115Z,1.47
2018-09-25T09:18:40.631Z,1.20
2018-09-25T09:21:14.220Z,1.30
2018-09-25T09:23:47.868Z,1.25
2018-09-25T09:26:21.478Z,1.10
2018-09-25T09:28:55.081Z,1.10
2018-09-25T09:31:28.590Z,1.00
2018-09-25T09:34:02.193Z,1.02
2018-09-25T09:36:35.771Z,1.00
2018-09-25T09:39:09.975Z,1.37
2018-09-25T09:41:43.684Z,1.17
2018-09-25T09:44:16.927Z,0.90
2018-09-25T09:46:50.588Z,1.10
2018-09-25T09:49:24.152Z,0.90
2018-09-25T09:51:58.320Z,0.90
2018-09-25T09:54:32.045Z,1.00
2018-09-25T09:57:05.547Z,1.10
2018-09-25T09:59:39.194Z,0.90
2018-09-25T10:02:12.696Z,0.80
2018-09-25T10:04:46.120Z,1.00
2018-09-25T10:07:19.754Z,1.10
2018-09-25T10:09:53.963Z,1.00
2018-09-25T10:12:27.574Z,0.80
2018-09-25T10:15:00.969Z,0.80
2018-09-25T10:17:34.437Z,1.00
2018-09-25T10:20:07.870Z,0.70
2018-09-25T10:22:41.279Z,0.77
2018-09-25T10:25:14.715Z,0.90
2018-09-25T10:27:49.776Z,1.00
2018-09-25T10:30:23.927Z,0.90
2018-09-25T10:32:57.558Z,1.10
2018-09-25T10:35:31.065Z,1.00
2018-09-25T10:38:04.455Z,0.87
2018-09-25T10:40:38.021Z,1.07
2018-09-25T10:43:11.616Z,1.00
2018-09-25T10:45:46.917Z,1.20
2018-09-25T10:48:20.474Z,0.80
2018-09-25T10:50:53.932Z,0.60
2018-09-25T10:53:29.772Z,0.70
2018-09-25T10:56:03.353Z,0.80
2018-09-25T10:58:37.005Z,0.77
2018-09-25T11:01:12.011Z,0.90
2018-09-25T11:03:45.469Z,0.90
2018-09-25T11:09:03.697Z,0.90
2018-09-25T11:11:37.227Z,0.70
2018-09-25T11:14:12.603Z,1.00
2018-09-25T11:16:47.840Z,0.77
2018-09-25T11:19:21.448Z,0.80
2018-09-25T11:21:54.958Z,0.70
2018-09-25T11:24:28.461Z,0.87
2018-09-25T11:27:01.891Z,1.00
2018-09-25T11:29:35.546Z,0.80
2018-09-25T11:32:09.171Z,0.90
2018-09-25T11:34:42.857Z,0.63
2018-09-25T11:37:16.442Z,1.13
2018-09-25T11:39:49.911Z,0.90
2018-09-25T11:42:23.539Z,0.60
2018-09-25T11:44:57.127Z,0.87
2018-09-25T11:47:30.667Z,0.60
2018-09-25T11:50:04.152Z,0.60
2018-09-25T11:52:37.663Z,0.70
2018-09-25T11:55:11.427Z,1.00
2018-09-25T11:57:44.972Z,0.70
2018-09-25T12:00:18.487Z,0.90
2018-09-25T12:02:52.060Z,0.90
2018-09-25T12:05:25.687Z,0.90
2018-09-25T12:07:59.352Z,0.80
2018-09-25T12:10:32.876Z,0.90
2018-09-25T12:13:06.431Z,1.00
2018-09-25T12:15:40.002Z,1.00
2018-09-25T12:18:13.583Z,0.97
2018-09-25T12:20:47.182Z,0.70
2018-09-25T12:23:21.451Z,0.97
2018-09-25T12:25:54.903Z,1.03
2018-09-25T12:28:28.384Z,0.80
2018-09-25T12:31:01.996Z,1.00
2018-09-25T12:33:35.493Z,1.10
2018-09-25T12:36:09.158Z,0.60
2018-09-25T12:38:42.756Z,0.80
2018-09-25T12:41:16.423Z,0.80
2018-09-25T12:43:49.915Z,0.90
2018-09-25T12:46:23.360Z,0.80
2018-09-25T12:48:56.812Z,0.80
2018-09-25T12:51:30.536Z,0.90
2018-09-25T12:54:03.943Z,0.80
2018-09-25T12:56:37.848Z,1.00
2018-09-25T12:59:11.343Z,0.90
2018-09-25T13:01:44.880Z,0.87
2018-09-25T13:04:18.516Z,0.80
2018-09-25T13:06:52.203Z,0.80
2018-09-25T13:09:25.891Z,0.70
2018-09-25T13:11:59.304Z,1.10
2018-09-25T13:14:33.031Z,0.83
2018-09-25T13:17:06.471Z,0.70
2018-09-25T13:19:40.026Z,0.80
2018-09-25T13:22:13.596Z,0.80
2018-09-25T13:24:47.093Z,0.77
2018-09-25T13:27:20.547Z,1.43
2018-09-25T13:29:54.253Z,0.80
2018-09-25T13:32:27.745Z,0.80
2018-09-25T13:35:01.181Z,0.93
2018-09-25T13:37:34.695Z,1.00
2018-09-25T13:40:08.243Z,2.10
2018-09-25T13:42:41.922Z,0.70
2018-09-25T13:45:15.392Z,0.80
2018-09-25T13:47:48.832Z,0.87
2018-09-25T13:50:22.418Z,0.97
2018-09-25T13:52:55.935Z,0.87
2018-09-25T13:55:29.467Z,0.77
2018-09-25T13:58:02.960Z,0.83
2018-09-25T14:00:36.519Z,1.00
2018-09-25T14:03:09.944Z,1.03
2018-09-25T14:05:43.422Z,0.70
2018-09-25T14:08:17.006Z,0.70
2018-09-25T14:10:50.604Z,0.90
2018-09-25T14:13:24.073Z,0.87
2018-09-25T14:15:57.554Z,0.80
2018-09-25T14:18:31.079Z,0.80
2018-09-25T14:21:04.524Z,0.80
2018-09-25T14:23:37.976Z,0.80
2018-09-25T14:26:11.599Z,0.90
2018-09-25T14:28:45.090Z,0.80
2018-09-25T14:31:18.845Z,0.97
2018-09-25T14:33:52.387Z,0.90
2018-09-25T14:36:26.011Z,0.70
2018-09-25T14:38:59.651Z,0.90
2018-09-25T14:41:33.655Z,1.00
2018-09-25T14:44:07.333Z,0.70
2018-09-25T14:46:40.855Z,0.80
2018-09-25T14:49:14.755Z,1.00
2018-09-25T14:51:48.288Z,0.70
2018-09-25T14:54:21.870Z,0.70
2018-09-25T14:56:55.202Z,0.73
2018-09-25T14:59:28.721Z,0.83
2018-09-25T15:02:02.200Z,0.77
2018-09-25T15:04:35.930Z,0.60
2018-09-25T15:07:09.448Z,0.97
2018-09-25T15:09:42.893Z,0.70
2018-09-25T15:12:16.613Z,0.70
2018-09-25T15:14:50.045Z,0.90
2018-09-25T15:17:23.646Z,1.00
2018-09-25T15:19:57.053Z,0.80
2018-09-25T15:22:30.565Z,0.80
2018-09-25T15:25:03.972Z,0.80
2018-09-25T15:27:37.482Z,0.80
2018-09-25T15:30:11.718Z,0.73
2018-09-25T15:32:45.529Z,1.27
2018-09-25T15:35:18.998Z,0.70
2018-09-25T15:37:53.045Z,0.80
2018-09-25T15:40:26.652Z,0.80
2018-09-25T15:43:00.031Z,1.33
2018-09-25T15:45:33.531Z,0.90
2018-09-25T15:48:07.229Z,0.80
2018-09-25T15:50:40.643Z,0.87
2018-09-25T15:53:14.218Z,0.87
2018-09-25T15:55:47.702Z,0.70
2018-09-25T15:58:21.222Z,0.80
2018-09-25T16:00:54.791Z,0.90
2018-09-25T16:03:28.379Z,0.70
2018-09-25T16:06:01.997Z,0.80
2018-09-25T16:08:35.593Z,0.90
2018-09-25T16:11:09.078Z,0.90
2018-09-25T16:13:42.685Z,0.80
2018-09-25T16:16:16.815Z,0.90
2018-09-25T16:18:50.316Z,0.60
2018-09-25T16:21:23.993Z,1.00
2018-09-25T16:23:57.388Z,0.70
2018-09-25T16:26:30.845Z,0.67
2018-09-25T16:29:04.476Z,0.83
2018-09-25T16:31:38.035Z,0.70
2018-09-25T16:34:11.746Z,0.70
2018-09-25T16:36:45.389Z,0.80
2018-09-25T16:39:18.806Z,0.60
2018-09-25T16:41:52.500Z,0.80
2018-09-25T16:44:26.178Z,0.93
2018-09-25T16:46:59.885Z,0.90
2018-09-25T16:49:33.387Z,0.73
2018-09-25T16:52:06.880Z,0.70
2018-09-25T16:54:40.572Z,0.93
2018-09-25T16:57:14.115Z,0.90
2018-09-25T16:59:47.850Z,1.10
2018-09-25T17:02:21.345Z,0.80
2018-09-25T17:04:54.963Z,1.20
2018-09-25T17:07:28.486Z,0.87
2018-09-25T17:10:02.209Z,1.00
2018-09-25T17:12:35.686Z,0.70
2018-09-25T17:15:09.131Z,0.93
2018-09-25T17:17:42.805Z,0.60
2018-09-25T17:20:16.169Z,1.00
2018-09-25T17:22:56.599Z,0.73
2018-09-25T17:25:30.188Z,0.80
2018-09-25T17:28:03.831Z,0.70
2018-09-25T17:30:37.423Z,1.10
2018-09-25T17:33:11.049Z,0.70
2018-09-25T17:35:44.546Z,0.90
2018-09-25T17:38:17.987Z,0.68
2018-09-25T17:40:51.516Z,0.93
2018-09-25T17:43:24.984Z,0.80
2018-09-25T17:45:58.448Z,0.80
2018-09-25T17:48:32.035Z,0.90
2018-09-25T17:51:05.612Z,0.68
2018-09-25T17:53:39.239Z,1.05
2018-09-25T17:56:13.102Z,0.80
2018-09-25T17:58:46.844Z,0.97
2018-09-25T18:01:20.416Z,0.70
2018-09-25T18:03:53.986Z,0.70
2018-09-25T18:06:27.694Z,0.90
2018-09-25T18:09:01.170Z,0.70
2018-09-25T18:11:34.806Z,0.73
2018-09-25T18:14:08.403Z,1.00
2018-09-25T18:16:41.942Z,0.80
2018-09-25T18:19:15.584Z,0.80
2018-09-25T18:21:49.228Z,0.80
2018-09-25T18:24:22.731Z,1.02
2018-09-25T18:26:56.395Z,1.05
2018-09-25T18:29:29.883Z,1.10
2018-09-25T18:32:03.480Z,0.70
2018-09-25T18:34:36.974Z,0.80
2018-09-25T18:37:10.448Z,0.95
2018-09-25T18:39:44.072Z,0.70
2018-09-25T18:42:17.640Z,0.85
2018-09-25T18:44:51.017Z,0.80
2018-09-25T18:47:24.594Z,1.65
2018-09-25T18:49:58.031Z,0.88
2018-09-25T18:52:31.559Z,1.15
2018-09-25T18:55:04.999Z,0.90
2018-09-25T18:57:38.591Z,1.00
2018-09-25T19:00:12.314Z,1.20
2018-09-25T19:02:45.863Z,0.98
2018-09-25T19:05:19.396Z,1.07
2018-09-25T19:07:52.813Z,1.15
2018-09-25T19:10:26.325Z,1.22
2018-09-25T19:12:59.731Z,1.40
2018-09-25T19:15:33.961Z,1.10
2018-09-25T19:18:07.428Z,1.10
2018-09-25T19:20:41.074Z,1.10
2018-09-25T19:23:14.570Z,1.17
2018-09-25T19:25:48.188Z,0.93
2018-09-25T19:28:21.692Z,0.80
2018-09-25T19:30:55.240Z,1.00
2018-09-25T19:33:28.747Z,1.17
2018-09-25T19:36:02.257Z,1.10
2018-09-25T19:38:36.103Z,0.95
2018-09-25T19:41:09.733Z,0.90
2018-09-25T19:43:43.224Z,1.40
2018-09-25T19:46:16.655Z,0.85
2018-09-25T19:48:50.111Z,1.00
2018-09-25T19:51:23.832Z,1.10
2018-09-25T19:53:57.279Z,1.00
2018-09-25T19:56:30.811Z,0.70
2018-09-25T19:59:04.457Z,1.10
2018-09-25T20:01:37.895Z,0.80
2018-09-25T20:04:11.543Z,1.05
2018-09-25T20:06:49.174Z,0.98
2018-09-25T20:15:01.267Z,0.95
2018-09-25T20:17:38.111Z,1.10
2018-09-25T20:20:14.818Z,1.15
2018-09-25T20:22:50.910Z,1.00
2018-09-25T20:25:27.793Z,1.00
2018-09-25T20:28:03.358Z,1.00
2018-09-25T20:30:40.244Z,1.42
2018-09-25T20:33:36.869Z,1.70
2018-09-25T20:41:36.534Z,1.40
2018-09-25T20:44:13.255Z,1.57
2018-09-25T20:46:50.090Z,1.42
2018-09-25T20:49:36.786Z,2.55
2018-09-25T20:52:13.492Z,1.75
2018-09-25T20:54:50.155Z,1.90
2018-09-25T20:57:27.167Z,2.00
2018-09-25T21:00:04.255Z,2.20
2018-09-25T21:02:45.259Z,2.45
2018-09-25T21:05:18.738Z,3.25
2018-09-25T21:07:52.552Z,2.67
2018-09-25T21:10:26.137Z,3.30
2018-09-25T21:12:59.939Z,1.92
2018-09-25T21:15:33.611Z,1.62
2018-09-25T21:18:07.152Z,1.50
2018-09-25T21:20:40.936Z,1.42
2018-09-25T21:23:14.378Z,1.47
2018-09-25T21:25:47.939Z,1.50
2018-09-25T21:28:21.700Z,1.40
2018-09-25T21:30:55.380Z,1.20
2018-09-25T21:33:28.948Z,1.25
2018-09-25T21:36:02.565Z,1.12
2018-09-25T21:38:36.097Z,1.70
2018-09-25T21:41:09.646Z,1.87
2018-09-25T21:43:43.211Z,1.10
2018-09-25T21:46:16.778Z,1.60
2018-09-25T21:48:50.421Z,1.32
2018-09-25T21:51:24.317Z,1.32
2018-09-25T21:53:57.713Z,1.50
2018-09-25T21:56:31.324Z,1.37
2018-09-25T22:02:49.384Z,1.60
2018-09-25T22:05:22.920Z,1.12
2018-09-25T22:07:56.410Z,1.25
2018-09-25T22:10:29.976Z,2.50
2018-09-25T22:13:03.499Z,1.40
2018-09-25T22:15:37.014Z,1.50
2018-09-25T22:18:10.603Z,1.37
2018-09-25T22:20:44.183Z,1.62
2018-09-25T22:23:18.024Z,1.60
2018-09-25T22:25:51.592Z,1.32
2018-09-25T22:28:25.041Z,1.35
2018-09-25T22:30:58.617Z,1.27
2018-09-25T22:33:32.302Z,1.60
2018-09-25T22:36:06.136Z,1.30
2018-09-25T22:38:39.831Z,1.50
2018-09-25T22:41:13.627Z,1.32
2018-09-25T22:43:47.118Z,1.40
2018-09-25T22:46:20.580Z,1.12
2018-09-25T22:48:54.289Z,1.15
2018-09-25T22:51:27.737Z,1.12
2018-09-25T22:54:01.497Z,1.40
2018-09-25T22:56:35.097Z,1.40
2018-09-25T22:59:08.603Z,1.42
2018-09-25T23:01:42.259Z,1.50
2018-09-25T23:04:15.763Z,1.95
2018-09-25T23:06:49.504Z,1.20
2018-09-25T23:09:22.946Z,1.60
2018-09-25T23:11:56.555Z,2.08
2018-09-25T23:14:30.132Z,1.98
2018-09-25T23:17:03.784Z,1.67
2018-09-25T23:19:37.407Z,1.67
2018-09-25T23:22:10.983Z,1.80
2018-09-25T23:24:44.972Z,1.55
2018-09-25T23:27:18.508Z,1.37
2018-09-25T23:29:52.072Z,1.85
2018-09-25T23:32:25.759Z,1.65
2018-09-25T23:34:59.414Z,1.47
2018-09-25T23:37:32.934Z,1.45
2018-09-25T23:40:21.391Z,1.57
2018-09-25T23:42:56.849Z,1.50
2018-09-25T23:45:30.423Z,1.40
2018-09-25T23:48:06.730Z,2.08
2018-09-25T23:50:42.386Z,1.45
2018-09-25T23:54:17.048Z,1.35
2018-09-25T23:56:50.547Z,1.20
2018-09-25T23:59:24.975Z,1.85
